Time;durP1;ratioP1;P1;durP2;ratioP2;P2;SDS_P1;SDS_P2;PMS_P1;PMS_P2;Temp;Humidity;BMP_temperature;BMP_pressure;BME280_temperature;BME280_humidity;BME280_pressure;Samples;Min_cycle;Max_cycle;Signal;HPM_P1;HPM_P2
2024/01/05 00:01:31;;;;;;;15.25;6.63;;;5.90;1.00;;;;;;7375635;19;20017;-68
2024/01/05 00:04:01;;;;;;;14.30;5.75;;;5.90;1.00;;;;;;7377178;19;20073;-69
2024/01/05 00:06:34;;;;;;;12.90;6.00;;;5.90;1.00;;;;;;7377124;19;20006;-69
2024/01/05 00:09:04;;;;;;;17.33;6.15;;;5.90;1.00;;;;;;7384221;19;20040;-69
2024/01/05 00:11:34;;;;;;;11.32;6.15;;;5.90;1.00;;;;;;7384102;19;20007;-69
2024/01/05 00:14:04;;;;;;;11.20;5.90;;;5.90;1.00;;;;;;7382769;19;20014;-69
2024/01/05 00:16:34;;;;;;;9.30;5.28;;;5.80;1.00;;;;;;7383637;19;20021;-69
2024/01/05 00:19:04;;;;;;;13.13;4.65;;;5.80;1.00;;;;;;7383747;19;20014;-69
2024/01/05 00:21:37;;;;;;;9.98;4.60;;;5.80;1.00;;;;;;7383854;19;20035;-70
2024/01/05 00:24:08;;;;;;;7.93;3.88;;;5.80;1.00;;;;;;7382598;19;20112;-70
2024/01/05 00:26:43;;;;;;;8.10;4.22;;;5.80;1.00;;;;;;7383370;19;20081;-69
2024/01/05 00:29:14;;;;;;;9.27;3.92;;;5.80;1.00;;;;;;7382493;19;20014;-70
2024/01/05 00:31:44;;;;;;;8.32;3.75;;;5.80;1.00;;;;;;7381257;19;20036;-69
2024/01/05 00:34:14;;;;;;;9.02;3.75;;;5.90;1.00;;;;;;7380917;19;20003;-69
2024/01/05 00:36:47;;;;;;;6.63;3.05;;;6.00;1.00;;;;;;7381239;19;20362;-69
2024/01/05 00:39:18;;;;;;;7.10;3.33;;;6.00;1.00;;;;;;7378924;19;20447;-70
2024/01/05 00:41:48;;;;;;;9.20;3.80;;;5.90;1.00;;;;;;7381994;19;20646;-70
2024/01/05 00:44:19;;;;;;;8.38;3.78;;;6.00;1.00;;;;;;7379316;19;20006;-70
2024/01/05 00:46:49;;;;;;;12.70;4.22;;;6.00;1.00;;;;;;7381397;19;20040;-70
2024/01/05 00:49:19;;;;;;;11.50;4.22;;;6.00;1.00;;;;;;7381779;19;20010;-69
2024/01/05 00:51:52;;;;;;;7.65;3.80;;;6.00;1.00;;;;;;7383170;19;20628;-70
2024/01/05 00:54:22;;;;;;;8.73;4.07;;;6.00;1.00;;;;;;7376675;19;20035;-70
2024/01/05 00:56:53;;;;;;;8.02;4.38;;;6.00;1.00;;;;;;7377686;19;20018;-70
2024/01/05 00:59:23;;;;;;;9.15;3.70;;;5.90;1.00;;;;;;7382253;19;20117;-70
2024/01/05 01:01:53;;;;;;;12.60;5.05;;;5.90;1.00;;;;;;7383468;19;20010;-69
2024/01/05 01:04:23;;;;;;;10.60;4.22;;;5.80;1.00;;;;;;7380462;19;20009;-70
2024/01/05 01:06:56;;;;;;;9.63;4.32;;;5.80;1.00;;;;;;7383282;19;20013;-70
2024/01/05 01:09:26;;;;;;;8.52;4.28;;;5.80;1.00;;;;;;7386881;19;20015;-70
2024/01/05 01:11:56;;;;;;;12.00;4.70;;;5.80;1.00;;;;;;7385517;19;20021;-69
2024/01/05 01:14:26;;;;;;;10.93;4.13;;;5.80;1.00;;;;;;7380018;19;20006;-70
2024/01/05 01:16:56;;;;;;;11.82;4.22;;;5.80;1.00;;;;;;7379959;19;20006;-71
2024/01/05 01:19:26;;;;;;;8.60;3.83;;;5.70;1.00;;;;;;7379573;19;20010;-70
2024/01/05 01:21:59;;;;;;;10.77;3.88;;;5.70;1.00;;;;;;7381080;19;20002;-69
2024/01/05 01:24:29;;;;;;;9.52;4.00;;;5.70;1.00;;;;;;7380717;19;20078;-70
2024/01/05 01:26:59;;;;;;;8.00;3.60;;;5.70;1.00;;;;;;7380181;19;20033;-70
2024/01/05 01:29:29;;;;;;;8.25;3.85;;;5.70;1.00;;;;;;7379613;19;20045;-70
2024/01/05 01:31:59;;;;;;;5.47;3.20;;;5.60;1.00;;;;;;7379995;19;20011;-69
2024/01/05 01:34:29;;;;;;;7.32;3.60;;;5.60;1.00;;;;;;7380669;19;20010;-69
2024/01/05 01:37:02;;;;;;;11.05;3.92;;;5.60;1.00;;;;;;7379998;19;20010;-69
2024/01/05 01:39:33;;;;;;;7.35;4.18;;;5.70;1.00;;;;;;7378755;19;20394;-69
2024/01/05 01:42:03;;;;;;;6.35;3.80;;;5.70;1.00;;;;;;7380241;19;20017;-69
2024/01/05 01:44:33;;;;;;;7.80;3.95;;;5.80;1.00;;;;;;7379941;19;20010;-70
2024/01/05 01:47:04;;;;;;;11.48;3.38;;;5.80;1.00;;;;;;7379942;19;20011;-70
2024/01/05 01:49:34;;;;;;;9.70;3.30;;;5.90;1.00;;;;;;7378808;19;20021;-69
2024/01/05 01:52:08;;;;;;;8.82;3.40;;;5.90;1.00;;;;;;7376291;19;20041;-70
2024/01/05 01:54:38;;;;;;;16.77;3.92;;;5.90;1.00;;;;;;7380001;19;20014;-70
2024/01/05 01:57:08;;;;;;;10.98;3.90;;;6.00;1.00;;;;;;7380252;19;20363;-70
2024/01/05 01:59:39;;;;;;;9.25;3.63;;;6.00;1.00;;;;;;7378046;19;20013;-69
2024/01/05 02:02:09;;;;;;;8.82;3.53;;;6.00;1.00;;;;;;7379087;19;20398;-69
2024/01/05 02:04:40;;;;;;;9.88;3.10;;;6.00;1.00;;;;;;7378614;19;20038;-69
2024/01/05 02:07:13;;;;;;;9.32;3.80;;;6.00;1.00;;;;;;7380159;19;20543;-69
2024/01/05 02:09:43;;;;;;;7.43;3.72;;;6.00;1.00;;;;;;7379271;19;20011;-69
2024/01/05 02:12:13;;;;;;;9.90;3.30;;;6.00;1.00;;;;;;7379473;19;20379;-69
2024/01/05 02:14:43;;;;;;;8.77;3.67;;;6.00;1.00;;;;;;7378537;19;20609;-69
2024/01/05 02:17:35;;;;;;;12.32;4.47;;;6.00;1.00;;;;;;7377642;19;20010;-70
2024/01/05 02:20:06;;;;;;;9.00;3.92;;;5.90;1.00;;;;;;7379670;19;20031;-69
2024/01/05 02:22:41;;;;;;;8.07;3.25;;;5.90;1.00;;;;;;7379581;19;20035;-70
2024/01/05 02:25:13;;;;;;;7.35;4.07;;;5.80;1.00;;;;;;7378695;19;20039;-70
2024/01/05 02:27:43;;;;;;;11.20;3.85;;;5.80;1.00;;;;;;7380016;19;20014;-70
2024/01/05 02:30:18;;;;;;;8.90;4.13;;;5.80;1.00;;;;;;7376245;19;20073;-69
2024/01/05 02:32:49;;;;;;;8.55;4.15;;;5.80;1.00;;;;;;7380024;19;20007;-70
2024/01/05 02:35:19;;;;;;;8.40;4.93;;;5.70;1.00;;;;;;7378456;19;20503;-69
2024/01/05 02:37:49;;;;;;;11.27;4.40;;;5.70;1.00;;;;;;7379751;19;20002;-69
2024/01/05 02:40:21;;;;;;;7.60;4.10;;;5.80;1.00;;;;;;7377533;19;20006;-69
2024/01/05 02:42:51;;;;;;;11.55;4.13;;;5.80;1.00;;;;;;7380294;19;20087;-69
2024/01/05 02:45:22;;;;;;;7.97;3.97;;;5.80;1.00;;;;;;7378560;19;20015;-70
2024/01/05 02:47:52;;;;;;;7.85;3.83;;;5.70;1.00;;;;;;7379217;19;20474;-70
2024/01/05 02:50:23;;;;;;;9.25;3.65;;;5.70;1.00;;;;;;7379711;19;20022;-69
2024/01/05 02:52:53;;;;;;;10.35;3.35;;;5.60;1.00;;;;;;7380967;19;20021;-70
2024/01/05 02:55:25;;;;;;;8.38;3.22;;;5.60;1.00;;;;;;7379432;19;20035;-69
2024/01/05 02:57:55;;;;;;;10.77;3.85;;;5.60;1.00;;;;;;7378850;19;20161;-69
2024/01/05 03:00:26;;;;;;;11.38;3.20;;;5.60;1.00;;;;;;7379153;19;20720;-69
2024/01/05 03:02:56;;;;;;;10.30;3.45;;;5.50;1.00;;;;;;7377270;19;20030;-70
2024/01/05 03:05:26;;;;;;;10.23;3.80;;;5.50;1.00;;;;;;7379303;19;20073;-69
2024/01/05 03:07:56;;;;;;;9.07;3.80;;;5.50;1.00;;;;;;7378873;19;20073;-70
2024/01/05 03:10:29;;;;;;;9.48;3.47;;;5.50;1.00;;;;;;7379014;19;20013;-69
2024/01/05 03:12:59;;;;;;;6.88;3.00;;;5.60;1.00;;;;;;7376967;19;20031;-70
2024/01/05 03:15:29;;;;;;;6.68;2.95;;;5.50;1.00;;;;;;7378295;19;20024;-69
2024/01/05 03:17:59;;;;;;;8.52;3.30;;;5.50;1.00;;;;;;7377723;19;20014;-69
2024/01/05 03:20:29;;;;;;;6.65;3.28;;;5.60;1.00;;;;;;7377843;19;20017;-70
2024/01/05 03:22:59;;;;;;;6.63;3.22;;;5.60;1.00;;;;;;7377208;19;19999;-69
2024/01/05 03:25:33;;;;;;;8.52;3.30;;;5.60;1.00;;;;;;7377342;19;20011;-70
2024/01/05 03:28:03;;;;;;;5.10;2.85;;;5.70;1.00;;;;;;7376918;19;20074;-70
2024/01/05 03:30:33;;;;;;;8.75;3.22;;;5.80;1.00;;;;;;7376695;19;20007;-69
2024/01/05 03:33:03;;;;;;;7.65;3.47;;;5.80;1.00;;;;;;7377903;19;20010;-69
2024/01/05 03:35:34;;;;;;;5.90;2.78;;;5.80;1.00;;;;;;7376843;19;20095;-69
2024/01/05 03:38:04;;;;;;;6.32;2.60;;;5.80;1.00;;;;;;7376974;19;20035;-70
2024/01/05 03:40:36;;;;;;;7.32;3.00;;;5.80;1.00;;;;;;7378772;19;20011;-69
2024/01/05 03:43:06;;;;;;;6.90;2.95;;;5.70;1.00;;;;;;7384082;19;20010;-69
2024/01/05 03:45:36;;;;;;;9.32;3.10;;;5.70;1.00;;;;;;7379160;19;20018;-69
2024/01/05 03:48:07;;;;;;;5.50;2.95;;;5.70;1.00;;;;;;7378471;19;20015;-69
2024/01/05 03:50:38;;;;;;;5.93;2.60;;;5.80;1.00;;;;;;7378195;19;20032;-70
2024/01/05 03:53:08;;;;;;;7.97;2.72;;;5.70;1.00;;;;;;7378130;19;20043;-69
2024/01/05 03:55:40;;;;;;;5.63;2.63;;;5.70;1.00;;;;;;7376059;19;20086;-70
2024/01/05 03:58:10;;;;;;;7.72;3.13;;;5.70;1.00;;;;;;7377756;19;20478;-69
2024/01/05 04:00:40;;;;;;;5.88;2.70;;;5.70;1.00;;;;;;7371150;19;20372;-69
2024/01/05 04:03:10;;;;;;;6.13;2.80;;;5.70;1.00;;;;;;7374134;19;20018;-69
2024/01/05 04:05:41;;;;;;;6.68;2.92;;;5.70;1.00;;;;;;7375423;19;20089;-69
2024/01/05 04:08:11;;;;;;;10.80;3.45;;;5.70;1.00;;;;;;7375900;19;20604;-69
2024/01/05 04:10:43;;;;;;;5.32;2.70;;;5.60;1.00;;;;;;7376973;19;20361;-70
2024/01/05 04:13:14;;;;;;;7.22;2.63;;;5.60;1.00;;;;;;7378007;19;20022;-70
2024/01/05 04:15:44;;;;;;;10.27;3.00;;;5.60;1.00;;;;;;7375765;19;20014;-69
2024/01/05 04:18:14;;;;;;;5.18;2.85;;;5.60;1.00;;;;;;7376342;19;20014;-70
2024/01/05 04:20:44;;;;;;;7.65;2.80;;;5.50;1.00;;;;;;7375911;19;20491;-70
2024/01/05 04:23:14;;;;;;;7.00;3.22;;;5.50;1.00;;;;;;7376844;19;20077;-70
2024/01/05 04:25:47;;;;;;;5.43;2.95;;;5.40;1.00;;;;;;7375967;19;20035;-69
2024/01/05 04:28:17;;;;;;;5.35;2.80;;;5.40;1.00;;;;;;7376282;19;20033;-68
2024/01/05 04:30:47;;;;;;;6.90;2.92;;;5.30;1.00;;;;;;7376873;19;20031;-70
2024/01/05 04:33:17;;;;;;;7.43;3.10;;;5.30;1.00;;;;;;7376951;19;24115;-69
2024/01/05 04:35:47;;;;;;;7.18;2.90;;;5.20;1.00;;;;;;7375472;19;20031;-69
2024/01/05 04:38:17;;;;;;;7.93;3.17;;;5.20;1.00;;;;;;7375891;19;20038;-70
2024/01/05 04:40:50;;;;;;;10.15;3.28;;;5.10;1.00;;;;;;7375913;19;20030;-69
2024/01/05 04:43:20;;;;;;;8.73;3.28;;;5.10;1.00;;;;;;7376039;19;20007;-68
2024/01/05 04:45:50;;;;;;;5.63;2.97;;;5.10;1.00;;;;;;7375589;19;20010;-69
2024/01/05 04:48:20;;;;;;;6.60;3.03;;;5.10;1.00;;;;;;7376199;19;20007;-69
2024/01/05 04:50:51;;;;;;;6.82;2.72;;;5.10;1.00;;;;;;7376827;19;20040;-70
2024/01/05 04:53:21;;;;;;;9.02;2.72;;;5.00;1.00;;;;;;7381172;19;20517;-71
2024/01/05 04:55:53;;;;;;;5.82;2.92;;;5.10;1.00;;;;;;7382020;19;20026;-70
2024/01/05 04:58:24;;;;;;;7.40;2.80;;;5.10;1.00;;;;;;7383395;19;20018;-69
2024/01/05 05:00:54;;;;;;;5.82;2.90;;;5.00;1.00;;;;;;7381031;19;20017;-69
2024/01/05 05:03:26;;;;;;;7.20;2.78;;;4.90;1.00;;;;;;7381379;19;20010;-69
2024/01/05 05:05:56;;;;;;;8.23;3.22;;;4.90;1.00;;;;;;7382576;19;20110;-69
2024/01/05 05:08:26;;;;;;;6.05;2.80;;;4.90;1.00;;;;;;7382489;19;20011;-70
2024/01/05 05:10:59;;;;;;;6.65;2.60;;;4.90;1.00;;;;;;7384148;19;20017;-69
2024/01/05 05:13:29;;;;;;;5.20;2.47;;;5.00;1.00;;;;;;7379962;19;20430;-69
2024/01/05 05:15:59;;;;;;;6.65;2.22;;;5.00;1.00;;;;;;7380999;19;20011;-70
2024/01/05 05:18:29;;;;;;;7.85;2.58;;;5.20;1.00;;;;;;7380762;19;20007;-70
2024/01/05 05:20:59;;;;;;;8.32;1.88;;;5.40;1.00;;;;;;7382369;19;20006;-69
2024/01/05 05:23:29;;;;;;;4.82;1.00;;;5.80;1.00;;;;;;7380592;19;20557;-70
2024/01/05 05:26:02;;;;;;;2.75;0.95;;;6.10;1.00;;;;;;7380197;19;20035;-70
2024/01/05 05:28:32;;;;;;;4.95;1.27;;;6.50;1.00;;;;;;7380976;19;20011;-70
2024/01/05 05:31:02;;;;;;;2.72;1.02;;;6.60;1.00;;;;;;7380974;19;20530;-71
2024/01/05 05:33:33;;;;;;;4.65;1.33;;;6.80;1.00;;;;;;7380187;19;20074;-69
2024/01/05 05:36:03;;;;;;;3.78;0.93;;;6.80;1.00;;;;;;7381118;19;20608;-69
2024/01/05 05:38:33;;;;;;;9.13;1.80;;;6.80;1.00;;;;;;7378756;19;20017;-69
2024/01/05 05:41:06;;;;;;;4.25;1.25;;;6.90;1.00;;;;;;7379960;19;20011;-69
2024/01/05 05:43:36;;;;;;;4.32;1.45;;;6.90;1.00;;;;;;7381132;19;20541;-69
2024/01/05 05:46:06;;;;;;;4.55;1.30;;;7.00;1.00;;;;;;7379827;19;20049;-70
2024/01/05 05:48:36;;;;;;;5.10;1.30;;;6.90;1.00;;;;;;7378513;19;20435;-70
2024/01/05 05:51:07;;;;;;;4.00;1.15;;;7.10;1.00;;;;;;7379691;19;20015;-70
2024/01/05 05:53:37;;;;;;;2.63;1.10;;;7.00;1.00;;;;;;7380153;19;20035;-70
2024/01/05 05:56:10;;;;;;;2.95;1.20;;;7.00;1.00;;;;;;7378317;19;20010;-69
2024/01/05 05:58:40;;;;;;;6.60;1.38;;;7.00;1.00;;;;;;7379390;19;20032;-69
2024/01/05 06:01:12;;;;;;;3.30;1.17;;;7.00;1.00;;;;;;7379222;19;20486;-69
2024/01/05 06:03:43;;;;;;;3.78;1.20;;;6.90;1.00;;;;;;7380070;19;20010;-69
2024/01/05 06:06:21;;;;;;;3.03;1.13;;;6.80;1.00;;;;;;7379685;19;20026;-69
2024/01/05 06:08:52;;;;;;;3.65;1.23;;;6.90;1.00;;;;;;7380111;19;20015;-70
2024/01/05 06:11:26;;;;;;;4.90;1.40;;;6.80;1.00;;;;;;7380387;19;20410;-69
2024/01/05 06:13:58;;;;;;;4.65;1.42;;;6.80;1.00;;;;;;7379410;19;20368;-70
2024/01/05 06:16:28;;;;;;;2.83;1.05;;;6.80;1.00;;;;;;7383511;19;20024;-69
2024/01/05 06:18:58;;;;;;;3.45;1.60;;;6.80;1.00;;;;;;7382985;19;20018;-71
2024/01/05 06:21:28;;;;;;;3.63;1.15;;;6.80;1.00;;;;;;7379387;19;20014;-70
2024/01/05 06:23:59;;;;;;;5.97;1.33;;;6.70;1.00;;;;;;7378597;19;20519;-70
2024/01/05 06:26:32;;;;;;;3.13;1.38;;;6.60;1.00;;;;;;7377088;19;20003;-70
2024/01/05 06:29:02;;;;;;;3.25;1.23;;;6.60;1.00;;;;;;7377596;19;20014;-70
2024/01/05 06:31:32;;;;;;;2.92;1.20;;;6.60;1.00;;;;;;7377327;19;20014;-69
2024/01/05 06:34:02;;;;;;;5.03;1.35;;;6.50;1.00;;;;;;7378211;19;20014;-69
2024/01/05 06:36:33;;;;;;;5.68;1.75;;;6.50;1.00;;;;;;7378400;19;20363;-69
2024/01/05 06:39:03;;;;;;;4.50;1.20;;;6.40;1.00;;;;;;7375493;19;20046;-69
2024/01/05 06:41:35;;;;;;;3.78;1.75;;;6.40;1.00;;;;;;7377374;19;20011;-69
2024/01/05 06:44:05;;;;;;;4.68;1.33;;;6.40;1.00;;;;;;7376298;19;20014;-69
2024/01/05 06:46:35;;;;;;;4.40;1.30;;;6.40;1.00;;;;;;7376842;19;20025;-70
2024/01/05 06:49:05;;;;;;;5.07;1.20;;;6.40;1.00;;;;;;7376579;19;20095;-69
2024/01/05 06:51:39;;;;;;;5.00;1.20;;;6.30;1.00;;;;;;7378002;19;20871;-69
2024/01/05 06:54:11;;;;;;;6.82;1.63;;;6.30;1.00;;;;;;7378880;19;20043;-69
2024/01/05 06:56:44;;;;;;;4.03;1.27;;;6.40;1.00;;;;;;7377658;19;20039;-69
2024/01/05 06:59:15;;;;;;;7.63;1.42;;;6.30;1.00;;;;;;7377529;19;20512;-70
2024/01/05 07:01:45;;;;;;;2.47;1.20;;;6.40;1.00;;;;;;7377116;19;20021;-69
2024/01/05 07:04:16;;;;;;;2.60;1.20;;;6.30;1.00;;;;;;7376231;19;20439;-69
2024/01/05 07:06:45;;;;;;;4.15;1.85;;;6.30;1.00;;;;;;7377866;19;20505;-70
2024/01/05 07:09:16;;;;;;;5.43;1.88;;;6.20;1.00;;;;;;7375829;19;20006;-69
2024/01/05 07:11:49;;;;;;;6.85;1.80;;;6.30;1.00;;;;;;7377400;19;20014;-70
2024/01/05 07:14:20;;;;;;;5.15;1.92;;;6.40;1.00;;;;;;7376357;19;20049;-69
2024/01/05 07:16:50;;;;;;;3.33;1.70;;;6.40;1.00;;;;;;7376391;19;20101;-69
2024/01/05 07:19:20;;;;;;;5.95;1.70;;;6.40;1.00;;;;;;7376955;19;20014;-70
2024/01/05 07:21:51;;;;;;;5.80;1.98;;;6.40;1.00;;;;;;7377255;19;20031;-69
2024/01/05 07:24:21;;;;;;;2.78;1.30;;;6.40;1.00;;;;;;7376077;19;20506;-69
2024/01/05 07:26:55;;;;;;;4.00;1.20;;;6.50;1.00;;;;;;7376752;19;20003;-69
2024/01/05 07:29:31;;;;;;;5.72;1.40;;;6.40;1.00;;;;;;7374287;19;20006;-69
2024/01/05 07:32:01;;;;;;;3.45;1.48;;;6.50;1.00;;;;;;7375656;19;20085;-69
2024/01/05 07:34:32;;;;;;;6.55;1.50;;;6.50;1.00;;;;;;7376909;19;20010;-69
2024/01/05 07:37:02;;;;;;;4.82;1.70;;;6.40;1.00;;;;;;7377253;19;20006;-69
2024/01/05 07:39:32;;;;;;;11.45;2.25;;;6.50;1.00;;;;;;7376882;19;20014;-70
2024/01/05 07:42:05;;;;;;;5.22;2.30;;;6.40;1.00;;;;;;7377636;19;20042;-69
2024/01/05 07:44:35;;;;;;;4.97;2.65;;;6.40;1.00;;;;;;7376628;19;20642;-69
2024/01/05 07:47:06;;;;;;;7.07;3.50;;;6.40;1.00;;;;;;7377361;19;20019;-70
2024/01/05 07:49:36;;;;;;;10.80;3.10;;;6.50;1.00;;;;;;7376995;19;20018;-69
2024/01/05 07:52:06;;;;;;;8.18;2.95;;;6.50;1.00;;;;;;7375749;19;20032;-70
2024/01/05 07:54:36;;;;;;;8.27;2.97;;;6.60;1.00;;;;;;7374607;19;20463;-69
2024/01/05 07:57:10;;;;;;;7.43;2.50;;;6.60;1.00;;;;;;7376952;19;20014;-70
2024/01/05 07:59:40;;;;;;;;;;;6.60;1.00;;;;;;7376362;19;20014;-70
2024/01/05 08:02:11;;;;;;;7.30;2.58;;;6.70;1.00;;;;;;7376470;19;20272;-69
2024/01/05 08:04:42;;;;;;;9.32;3.28;;;6.70;1.00;;;;;;7374483;19;20013;-69
2024/01/05 08:07:13;;;;;;;4.72;2.67;;;6.70;1.00;;;;;;7377641;19;20018;-69
2024/01/05 08:09:44;;;;;;;8.02;3.17;;;6.70;1.00;;;;;;7375549;19;20024;-69
2024/01/05 08:12:17;;;;;;;9.75;4.82;;;6.70;1.00;;;;;;7375897;19;20026;-69
2024/01/05 08:14:47;;;;;;;7.63;3.95;;;6.80;1.00;;;;;;7374864;19;20007;-69
2024/01/05 08:17:20;;;;;;;7.93;3.85;;;6.80;1.00;;;;;;7377316;19;20026;-69
2024/01/05 08:19:50;;;;;;;6.90;3.58;;;6.90;1.00;;;;;;7377003;19;20011;-70
2024/01/05 08:22:21;;;;;;;6.85;4.72;;;6.90;1.00;;;;;;7376702;19;20661;-69
2024/01/05 08:24:51;;;;;;;6.47;2.80;;;7.00;1.00;;;;;;7375993;19;20094;-69
2024/01/05 08:27:23;;;;;;;6.63;2.80;;;7.10;1.00;;;;;;7377782;19;20023;-69
2024/01/05 08:29:54;;;;;;;7.25;2.47;;;7.20;1.00;;;;;;7383175;19;20022;-69
2024/01/05 08:32:24;;;;;;;8.18;2.90;;;7.20;1.00;;;;;;7383330;19;20359;-68
2024/01/05 08:34:54;;;;;;;5.90;2.22;;;7.30;1.00;;;;;;7382057;19;20002;-69
2024/01/05 08:37:24;;;;;;;5.05;2.10;;;7.40;1.00;;;;;;7382889;19;20014;-69
2024/01/05 08:39:54;;;;;;;5.55;1.80;;;7.50;1.00;;;;;;7382147;19;20003;-70
2024/01/05 08:42:27;;;;;;;4.25;2.08;;;7.60;1.00;;;;;;7375070;19;20011;-70
2024/01/05 08:44:58;;;;;;;6.28;1.63;;;7.70;1.00;;;;;;7373189;19;20045;-70
2024/01/05 08:47:29;;;;;;;7.03;2.40;;;7.70;1.00;;;;;;7377648;19;20015;-71
2024/01/05 08:49:59;;;;;;;9.25;3.63;;;7.90;1.00;;;;;;7384115;19;20035;-70
2024/01/05 08:52:29;;;;;;;6.18;2.05;;;7.90;1.00;;;;;;7387510;19;20609;-71
2024/01/05 08:54:59;;;;;;;6.13;2.35;;;8.00;1.00;;;;;;7380941;19;20010;-71
2024/01/05 08:57:31;;;;;;;4.47;1.60;;;8.10;1.00;;;;;;7380039;19;20146;-71
2024/01/05 09:00:02;;;;;;;4.80;2.00;;;8.20;1.00;;;;;;7380777;19;20382;-70
2024/01/05 09:02:34;;;;;;;4.85;1.98;;;8.40;1.00;;;;;;7380036;19;20010;-70
2024/01/05 09:05:04;;;;;;;4.72;2.00;;;8.50;1.00;;;;;;7379644;19;20086;-70
2024/01/05 09:07:35;;;;;;;3.35;1.55;;;8.50;1.00;;;;;;7381835;19;20109;-70
2024/01/05 09:10:10;;;;;;;4.53;2.15;;;8.40;1.00;;;;;;7381540;19;20082;-70
2024/01/05 09:12:43;;;;;;;4.00;1.70;;;8.30;1.00;;;;;;7378979;19;20011;-69
2024/01/05 09:15:13;;;;;;;3.50;1.75;;;8.20;1.00;;;;;;7380844;19;20007;-70
2024/01/05 09:17:45;;;;;;;6.72;3.08;;;8.20;1.00;;;;;;7379432;19;20010;-69
2024/01/05 09:20:15;;;;;;;5.13;3.00;;;8.30;1.00;;;;;;7379860;19;20015;-68
2024/01/05 09:22:45;;;;;;;4.50;2.03;;;8.30;1.00;;;;;;7380975;19;20010;-67
2024/01/05 09:25:15;;;;;;;5.35;1.80;;;8.30;1.00;;;;;;7379258;19;20051;-69
2024/01/05 09:27:52;;;;;;;4.20;1.90;;;8.40;1.00;;;;;;7380723;19;20010;-69
2024/01/05 09:30:23;;;;;;;6.05;2.28;;;8.50;1.00;;;;;;7379284;19;20029;-69
2024/01/05 09:32:53;;;;;;;7.63;2.17;;;8.40;1.00;;;;;;7379704;19;20014;-69
2024/01/05 09:35:25;;;;;;;4.32;2.00;;;8.40;1.00;;;;;;7379031;19;20478;-69
2024/01/05 09:38:10;;;;;;;4.57;2.47;;;8.50;1.00;;;;;;6868342;19;2004796;-69
2024/01/05 09:41:00;;;;;;;7.53;3.78;;;8.50;1.00;;;;;;7378728;19;20518;-70
2024/01/05 09:43:54;;;;;;;6.00;2.03;;;8.70;1.00;;;;;;7379738;19;20044;-69
2024/01/05 09:46:45;;;;;;;3.33;1.98;;;8.70;1.00;;;;;;6870725;19;2004235;-70
2024/01/05 09:49:37;;;;;;;4.50;1.83;;;8.60;1.00;;;;;;7378048;19;20014;-69
2024/01/05 09:52:27;;;;;;;6.88;2.53;;;8.50;1.00;;;;;;7375636;19;20171;-68
2024/01/05 09:55:17;;;;;;;6.05;2.25;;;8.50;1.00;;;;;;6870244;19;2004636;-69
2024/01/05 09:58:07;;;;;;;5.18;2.60;;;8.50;1.00;;;;;;7378451;19;20010;-69
2024/01/05 10:01:09;;;;;;;6.15;2.60;;;8.50;1.00;;;;;;7379189;19;20048;-69
2024/01/05 10:04:01;;;;;;;8.55;2.85;;;8.50;1.00;;;;;;6766609;19;2004966;-70
2024/01/05 10:07:01;;;;;;;7.60;3.28;;;8.60;1.00;;;;;;7379443;19;20032;-69
2024/01/05 10:09:52;;;;;;;10.45;3.20;;;8.70;1.00;;;;;;6869240;19;2004488;-70
2024/01/05 10:12:42;;;;;;;8.25;3.30;;;8.80;1.00;;;;;;6868404;19;2003926;-68
2024/01/05 10:15:32;;;;;;;5.65;2.67;;;8.90;1.00;;;;;;7376497;19;20011;-69
2024/01/05 10:18:28;;;;;;;7.53;2.88;;;8.90;1.00;;;;;;7377176;19;20506;-70
2024/01/05 10:21:18;;;;;;;5.75;3.08;;;9.00;1.00;;;;;;6868675;19;2004807;-70
2024/01/05 10:24:16;;;;;;;7.18;3.10;;;9.00;1.00;;;;;;7376542;19;20006;-70
2024/01/05 10:27:11;;;;;;;7.22;2.70;;;9.10;1.00;;;;;;6867953;19;2004646;-69
2024/01/05 10:30:02;;;;;;;8.30;3.42;;;9.10;1.00;;;;;;7375501;19;20014;-70
2024/01/05 10:33:05;;;;;;;6.13;2.50;;;9.10;1.00;;;;;;7378134;19;20608;-70
2024/01/05 10:36:07;;;;;;;6.63;2.38;;;9.10;1.00;;;;;;6869049;19;2004947;-69
2024/01/05 10:38:57;;;;;;;4.68;1.80;;;9.10;1.00;;;;;;6868519;19;2004226;-68
2024/01/05 10:41:50;;;;;;;7.28;2.03;;;9.10;1.00;;;;;;6862926;19;2004814;-70
2024/01/05 10:44:47;;;;;;;6.25;1.75;;;9.10;1.00;;;;;;6848820;19;2004019;-69
2024/01/05 10:47:41;;;;;;;5.43;2.00;;;9.10;1.00;;;;;;6860612;19;2004145;-70
2024/01/05 10:50:37;;;;;;;4.05;1.80;;;9.20;1.00;;;;;;7370387;19;20022;-69
2024/01/05 10:53:30;;;;;;;4.65;2.05;;;9.30;1.00;;;;;;7377431;19;20015;-69
2024/01/05 10:56:22;;;;;;;8.48;2.28;;;9.30;1.00;;;;;;6864855;19;2004940;-70
2024/01/05 10:59:13;;;;;;;5.47;2.60;;;9.40;1.00;;;;;;6864856;19;2004334;-70
2024/01/05 11:02:05;;;;;;;3.80;2.20;;;9.40;1.00;;;;;;7374706;19;20455;-70
2024/01/05 11:05:02;;;;;;;5.15;3.15;;;9.50;1.00;;;;;;7372949;19;20018;-70
2024/01/05 11:07:53;;;;;;;5.90;2.25;;;9.60;1.00;;;;;;6863939;19;2004816;-70
2024/01/05 11:10:58;;;;;;;5.00;1.95;;;9.60;1.00;;;;;;6863785;19;2004905;-71
2024/01/05 11:14:14;;;;;;;4.60;2.00;;;9.50;1.00;;;;;;6863225;19;2003947;-68
2024/01/05 11:17:40;;;;;;;4.00;1.92;;;9.60;1.00;;;;;;6865269;19;2004710;-70
2024/01/05 11:20:48;;;;;;;14.85;9.13;;;9.60;1.00;;;;;;6761598;19;2003905;-70
2024/01/05 11:23:43;;;;;;;3.85;2.10;;;9.50;1.00;;;;;;7374861;19;20019;-70
2024/01/05 11:26:42;;;;;;;5.13;2.42;;;9.60;1.00;;;;;;7363219;19;20021;-69
2024/01/05 11:29:52;;;;;;;3.80;1.92;;;9.60;1.00;;;;;;7372010;19;20021;-69
2024/01/05 11:32:44;;;;;;;3.97;1.88;;;9.70;1.00;;;;;;6863817;19;2004458;-69
2024/01/05 11:35:53;;;;;;;6.10;3.33;;;9.70;1.00;;;;;;7372316;19;20078;-69
2024/01/05 11:38:47;;;;;;;7.05;3.13;;;9.70;1.00;;;;;;6862179;19;2004845;-69
2024/01/05 11:41:40;;;;;;;5.18;2.90;;;9.70;1.00;;;;;;7372259;19;20013;-69
2024/01/05 11:44:34;;;;;;;5.40;2.00;;;9.80;1.00;;;;;;7374833;19;20441;-69
2024/01/05 11:47:43;;;;;;;6.03;2.10;;;9.70;1.00;;;;;;6864973;19;2003815;-69
2024/01/05 11:50:35;;;;;;;6.03;2.33;;;9.70;1.00;;;;;;6865097;19;2003934;-69
2024/01/05 11:53:27;;;;;;;3.92;1.90;;;9.60;1.00;;;;;;7374737;19;20010;-69
2024/01/05 11:56:21;;;;;;;5.60;2.38;;;9.70;1.00;;;;;;6866394;19;2004918;-70
2024/01/05 11:59:18;;;;;;;5.00;2.35;;;9.70;1.00;;;;;;6863046;19;2003987;-69
2024/01/05 12:02:08;;;;;;;4.47;2.05;;;9.60;1.00;;;;;;7379388;19;20482;-70
2024/01/05 12:04:59;;;;;;;6.15;2.50;;;9.60;1.00;;;;;;7383834;19;20018;-69
2024/01/05 12:07:49;;;;;;;3.88;2.05;;;9.50;1.00;;;;;;6871809;19;2005380;-69
2024/01/05 12:10:41;;;;;;;5.05;2.30;;;9.50;1.00;;;;;;7379061;19;20094;-69
2024/01/05 12:13:33;;;;;;;5.15;2.25;;;9.60;1.00;;;;;;7380183;19;20041;-70
2024/01/05 12:16:28;;;;;;;4.03;2.00;;;9.60;1.00;;;;;;7382693;19;20014;-70
2024/01/05 12:19:22;;;;;;;3.65;2.35;;;9.50;1.00;;;;;;6871588;19;2004686;-70
2024/01/05 12:22:14;;;;;;;7.43;2.17;;;9.50;1.00;;;;;;6871700;19;2003946;-69
2024/01/05 12:25:04;;;;;;;4.53;2.53;;;9.50;1.00;;;;;;7380317;19;20014;-69
2024/01/05 12:27:54;;;;;;;5.70;2.08;;;9.50;1.00;;;;;;7382236;19;20897;-69
2024/01/05 12:30:45;;;;;;;8.65;4.68;;;9.60;1.00;;;;;;6871101;19;2004315;-69
2024/01/05 12:33:39;;;;;;;24.13;14.40;;;9.60;1.00;;;;;;7378617;19;20018;-70
2024/01/05 12:36:31;;;;;;;3.80;2.58;;;9.80;1.00;;;;;;7383569;19;20007;-69
2024/01/05 12:39:25;;;;;;;4.18;2.20;;;9.80;1.00;;;;;;6870800;19;2004002;-69
2024/01/05 12:42:17;;;;;;;5.05;2.45;;;9.80;1.00;;;;;;6870932;19;2004715;-70
2024/01/05 12:45:08;;;;;;;6.70;2.72;;;9.80;1.00;;;;;;7378456;19;20459;-69
2024/01/05 12:47:58;;;;;;;6.18;2.47;;;9.80;1.00;;;;;;7382111;19;20010;-70
2024/01/05 12:50:50;;;;;;;5.15;2.40;;;9.70;1.00;;;;;;6871029;19;2005179;-70
2024/01/05 12:53:40;;;;;;;5.90;2.78;;;9.70;1.00;;;;;;7379040;19;20021;-70
2024/01/05 12:56:30;;;;;;;7.43;2.58;;;9.60;1.00;;;;;;7382423;19;20018;-70
2024/01/05 12:59:22;;;;;;;4.20;2.13;;;9.60;1.00;;;;;;6870718;19;2004694;-69
2024/01/05 13:02:12;;;;;;;4.93;2.45;;;9.60;1.00;;;;;;7379322;19;20019;-69
2024/01/05 13:05:02;;;;;;;6.07;2.13;;;9.70;1.00;;;;;;7380993;19;20054;-69
2024/01/05 13:07:55;;;;;;;5.95;2.30;;;9.80;1.00;;;;;;6871090;19;2005341;-70
2024/01/05 13:10:45;;;;;;;6.97;2.40;;;9.80;1.00;;;;;;6868910;19;2005518;-69
2024/01/05 13:13:35;;;;;;;6.78;2.55;;;9.90;1.00;;;;;;7371522;19;20341;-69
2024/01/05 13:16:25;;;;;;;7.40;2.58;;;9.90;1.00;;;;;;7378822;19;20011;-69
2024/01/05 13:19:16;;;;;;;4.75;2.33;;;9.90;1.00;;;;;;6868937;19;2005453;-69
2024/01/05 13:22:09;;;;;;;2.92;1.95;;;9.80;1.00;;;;;;7374007;19;20011;-70
2024/01/05 13:25:03;;;;;;;2.85;1.75;;;9.80;1.00;;;;;;7381532;19;20728;-69
2024/01/05 13:27:53;;;;;;;5.50;2.20;;;9.80;1.00;;;;;;6869893;19;2004873;-70
2024/01/05 13:30:43;;;;;;;5.68;2.75;;;9.80;1.00;;;;;;6868639;19;2005099;-70
2024/01/05 13:33:34;;;;;;;3.95;2.63;;;9.80;1.00;;;;;;7378342;19;20786;-69
2024/01/05 13:36:25;;;;;;;6.07;2.75;;;9.80;1.00;;;;;;7378809;19;20026;-69
2024/01/05 13:39:15;;;;;;;3.90;2.20;;;9.80;1.00;;;;;;6868142;19;2004271;-70
2024/01/05 13:42:08;;;;;;;3.55;1.95;;;9.90;1.00;;;;;;7375334;19;20010;-70
2024/01/05 13:44:58;;;;;;;4.78;2.15;;;9.90;1.00;;;;;;7380531;19;20015;-69
2024/01/05 13:47:48;;;;;;;4.63;2.10;;;9.80;1.00;;;;;;6869595;19;2004827;-69
2024/01/05 13:50:38;;;;;;;4.90;2.10;;;9.80;1.00;;;;;;7377635;19;20015;-70
2024/01/05 13:53:28;;;;;;;7.03;2.38;;;9.80;1.00;;;;;;7380878;19;20344;-69
2024/01/05 13:56:18;;;;;;;4.47;2.30;;;9.80;1.00;;;;;;6868290;19;2004015;-69